Aeroporto :
LOGIN :

Iscrizione | Disclaimer

   EN    FR    IT 

 










Sommario :    VFR   VFR Marginale   IFR   IFR Intensivo   IFR Molto Intensivo
Visibilità : 
Base nubi : 
>= 8 km
>= 3000ft
5 / 8 km
1000 / 3000 ft
1500m / 5 km
500 / 1000 ft
800 / 1500m
200 / 500 ft
< 800m
< 200 ft
Simboli :   Temporali  Nebbia  Neve Forte  Precipitazioni Forti  Vento > 20 kt
SIGMETs :   Varie  Temporali  Ghiacco  Turbolenza  Onda orograficha  Ceneri Vulcaniche






- Altitudine del aeroporto : 1906 ft
- Codice IATA : INN


LOWI - Innsbruck

ULTIMO METAR :
  • 280420Z AUTO 24012G24KT 5000 -SN FEW011 BKN017 01/M01 Q1012

METARs OBSOLETI :
  • 280350Z AUTO 25017KT 6000 -SN FEW011 BKN028 02/M02 Q1011
  • 280320Z AUTO 24013KT 9999 -SN FEW018 BKN026 02/M02 Q1010
  • 280250Z AUTO 24015KT 6000 -SN FEW015 SCT020 BKN026 02/M02 Q1009
  • 280220Z AUTO 25019KT 7000 -SN FEW010 BKN024 02/M01 Q1009
  • 280150Z AUTO 24016KT 7000 -SN FEW011 SCT024 BKN032 02/M01 Q1008

TAF TAF LOWI
Valido dal 28 a 00 ore il 29 a 00 ore UTC


272315Z 2800/2824 27012KT 9999 -SHSN SCT010 BKN070 TX06/2813Z TNM01/2804Z
TEMPO 2800/2806 28015G40KT 1200 SHSN BKN012
BECMG 2808/2810 27005KT 9999 NSW SCT060
TEMPO 2812/2816 08006KT



MetMap, La meteo Aeronautica in un colpo d'occhio ! - Copyright ORBIFLY Dicembre 2007 - Disclaimer

ORBIFLY MET'MAP TEAM :

Programmazione e sviluppo : Alexandra Zaïnal
Concezione : Baudouin d'Aumeries
Aiuto per la programmazione : Marc-Olivier Méhu
Supporto tecnico e logistico : Manuel Goepfert
Aiuto per la traduzione : Arnaldo La Scala

Contatto : metmap@orbifly.com




FONTI E CREDITI :

   NOAA